Main page
METAR-TAF:

METAR-TAF

Airports :

Kuwait International Airport

Kuwait City, Kuwait

latitude: 29-13N, longitude: 047-59E, elevation: 55 m

Current weather observation

The report was made 18 minutes ago, at 14:00 UTC
Wind 13 kt from the North
Temperature 46°C
Humidity 9%
Pressure 996 hPa
Visibility 10 km or more
no clouds below 1500 m and no cumulonimbus

METAR: OKBK 181400Z 35013KT CAVOK 46/05 Q0996 NOSIG

Time: 17:18 (14:18 UTC)

Forecast

The report was made 3 hours and 33 minutes ago, at 10:45 UTC
Forecast valid from 18 at 12 UTC to 19 at 18 UTC
Wind 8 kt from the North with gusts up to 18 kt
Visibility: 8000 m
Clear sky

TAF: OKBK 181045Z 1812/1918 35008G18KT 8000 SKC

Weather observations and forecasts of more than 4000 airports (METAR and TAF reports).

The available stations are represented by yellow and red dots on the map.

Hover mouse over dot to see the name of the station.

Then click to see weather observations and forecasts.

To change the map : click on the green buttons with a black cross to zoom in, on the green button with a dash to zoom out, or on the green arrows for adjacent maps.


METAR-TAF: